Latest Weather Observations for Daly Waters

IDD60801

Issued at 2:21 pm CST Monday 23 September 2019 (issued every 10 minutes, with the page automatically refreshed every 10 minutes)

About weather observations | Map of weather stations | Latest weather observations for NT | Other Formats
Station Details ID: 014626 Name: DALY WATERS AIRSTRIP Lat: -16.26 Lon: 133.38 Height: 209.84 m
Data from the previous 72 hours. | See also: Recent months at Daly Waters
Date/Time
CST
Temp
°C
App
Temp
°C
Dew
Point
°C
Rel
Hum
%
Delta-T
°C
Wind Press
QNH
hPa
Press
MSL
hPa
Rain since
9am
mm
Dir  Spd
km/h
Gust
km/h
Spd
kts
Gust
kts
23/02:00pm 34.6 31.2 4.2 15 16.2 NE 11 20 6 11 1015.7 1014.5 0.0
23/01:30pm 34.4 29.5 5.0 16 15.8 ENE 20 30 11 16 1016.4 1015.3 0.0
23/01:00pm 34.0 29.6 4.6 16 15.7 ESE 17 32 9 17 1017.0 1015.9 0.0
23/12:30pm 33.1 28.2 3.9 16 15.3 ENE 19 28 10 15 1017.5 1016.4 0.0
23/12:00pm 33.5 29.0 4.2 16 15.5 E 17 33 9 18 1018.0 1016.9 0.0
23/11:30am 32.4 27.5 4.2 17 14.8 E 19 28 10 15 1018.6 1017.4 0.0
23/11:00am 31.1 26.4 3.2 17 14.3 ESE 17 28 9 15 1019.0 1017.8 0.0
23/10:30am 29.8 25.4 2.9 18 13.6 ESE 15 28 8 15 1019.4 1018.2 0.0
23/10:00am 28.8 24.5 1.3 17 13.5 SE 13 20 7 11 1019.7 1018.5 0.0
23/09:30am 28.4 23.3 1.0 17 13.3 ESE 17 24 9 13 1019.8 1018.6 0.0
23/09:00am 27.7 22.6 0.5 17 13.0 ESE 17 24 9 13 1020.0 1018.9 0.0
23/08:30am 26.6 21.8 0.4 18 12.4 ESE 15 28 8 15 1020.0 1018.9 0.0
23/08:00am 25.3 21.8 1.4 21 11.4 SE 9 15 5 8 1019.7 1018.5 0.0
23/07:30am 24.5 21.0 1.4 22 11.0 SE 9 15 5 8 1019.6 1018.4 0.0
23/07:00am 24.0 20.5 1.0 22 10.8 SE 9 15 5 8 1019.3 1018.1 0.0
23/06:30am 24.1 20.6 1.1 22 10.8 SE 9 17 5 9 1019.1 1017.9 0.0
23/06:00am 24.1 20.6 1.1 22 10.8 SE 9 15 5 8 1018.9 1017.7 0.0
23/05:30am 23.8 20.3 1.4 23 10.6 SE 9 13 5 7 1018.4 1017.3 0.0
23/05:00am 23.7 20.6 1.4 23 10.5 SSE 7 13 4 7 1018.1 1017.0 0.0
23/04:30am 23.8 20.7 1.4 23 10.6 SSE 7 11 4 6 1017.8 1016.7 0.0
23/04:00am 24.5 21.0 1.4 22 11.0 SE 9 13 5 7 1017.7 1016.6 0.0
23/03:30am 25.0 21.6 1.8 22 11.1 SE 9 13 5 7 1017.9 1016.8 0.0
23/03:00am 25.4 22.3 1.5 21 11.4 SE 7 15 4 8 1017.9 1016.8 0.0
23/02:30am 26.0 22.6 2.0 21 11.6 ESE 9 20 5 11 1018.0 1016.9 0.0
23/02:00am 26.4 22.8 3.0 22 11.6 SE 11 19 6 10 1018.2 1017.1 0.0
23/01:30am 26.5 23.8 5.5 26 10.9 SE 9 13 5 7 1018.6 1017.4 0.0
23/01:00am 25.7 24.7 10.3 38 8.6 SSE 6 9 3 5 1018.8 1017.6 0.0
23/12:30am 26.7 25.7 10.4 36 9.2 ENE 6 7 3 4 1018.9 1017.7 0.0
23/12:00am 27.8 26.8 10.9 35 9.7 E 7 11 4 6 1018.8 1017.6 0.0
 
Date/Time
CST
Temp
°C
App
Temp
°C
Dew
Point
°C
Rel
Hum
%
Delta-T
°C
Wind Press
QNH
hPa
Press
MSL
hPa
Rain since
9am
mm
Dir  Spd
km/h
Gust
km/h
Spd
kts
Gust
kts
22/11:30pm 28.3 27.3 10.9 34 10.0 ENE 7 9 4 5 1018.9 1017.7 0.0
22/11:00pm 29.4 28.3 11.9 34 10.3 ENE 9 15 5 8 1018.8 1017.6 0.0
22/10:30pm 30.3 27.4 12.2 33 10.7 ENE 19 26 10 14 1018.6 1017.4 0.0
22/10:00pm 31.3 29.8 13.1 33 11.0 E 13 22 7 12 1018.3 1017.2 0.0
22/09:30pm 32.0 29.1 8.3 23 13.3 ESE 13 28 7 15 1018.0 1016.9 0.0
22/09:00pm 31.7 30.0 9.8 26 12.5 SE 9 19 5 10 1017.6 1016.5 0.0
22/08:30pm 31.6 30.5 9.8 26 12.5 E 6 7 3 4 1016.9 1015.8 0.0
22/08:00pm 31.7 30.9 9.8 26 12.5 E 4 7 2 4 1016.6 1015.5 0.0
22/07:30pm 32.5 31.4 9.9 25 13.0 E 6 7 3 4 1016.2 1015.1 0.0
22/07:00pm 32.9 31.5 9.7 24 13.3 ENE 7 11 4 6 1015.8 1014.7 0.0
22/06:30pm 33.6 32.2 9.6 23 13.8 ENE 7 11 4 6 1015.4 1014.2 0.0
22/06:00pm 33.9 31.5 9.9 23 13.9 ENE 13 17 7 9 1015.0 1013.8 0.0
22/05:30pm 34.4 31.7 10.3 23 14.1 ENE 15 24 8 13 1014.7 1013.5 0.0
22/05:00pm 34.7 30.7 9.2 21 14.7 ENE 20 26 11 14 1014.4 1013.2 0.0
22/04:30pm 35.1 32.7 8.8 20 15.1 E 11 19 6 10 1014.2 1013.0 0.0
22/04:00pm 36.0 32.5 7.1 17 16.2 E 15 28 8 15 1014.3 1013.1 0.0
22/03:30pm 35.9 32.9 9.4 20 15.4 ENE 15 30 8 16 1014.3 1013.1 0.0
22/03:00pm 35.4 33.5 9.0 20 15.2 ENE 9 26 5 14 1014.6 1013.4 0.0
22/02:30pm 35.2 31.7 8.9 20 15.1 ENE 17 30 9 16 1015.0 1013.8 0.0
22/02:00pm 35.4 31.8 9.7 21 14.9 NNE 19 30 10 16 1015.3 1014.1 0.0
22/01:30pm 35.6 33.7 10.6 22 14.7 E 11 24 6 13 1015.9 1014.8 0.0
22/01:00pm 33.9 31.0 11.1 25 13.5 NE 17 32 9 17 1016.5 1015.4 0.0
22/12:30pm 32.7 31.4 11.3 27 12.6 E 9 19 5 10 1017.2 1016.1 0.0
22/12:14pm 32.8 30.1 12.9 29 12.0 ENE 19 52 10 28 1017.5 1016.4 0.0
22/12:00pm 32.3 31.5 13.0 31 11.6 E 9 17 5 9 1018.0 1016.9 0.0
22/11:30am 31.2 30.2 13.5 34 10.7 ENE 11 22 6 12 1018.6 1017.4 0.0
22/11:00am 30.2 29.4 13.9 37 9.9 E 11 22 6 12 1019.0 1017.8 0.0
22/10:30am 29.0 30.1 16.5 46 7.8 NE 6 15 3 8 1019.1 1017.9 0.0
22/10:00am 27.8 29.7 17.6 53 6.5 ENE 4 7 2 4 1019.3 1018.1 0.0
22/09:30am 26.6 28.2 17.9 59 5.5 N 6 9 3 5 1019.4 1018.2 0.0
22/09:00am 25.9 28.2 18.6 64 4.7 NE 4 13 2 7 1019.5 1018.3 0.0
22/08:30am 25.2 26.8 19.1 69 3.9 ENE 9 15 5 8 1019.3 1018.1 0.0
22/08:00am 24.0 25.2 19.1 74 3.1 E 11 17 6 9 1019.1 1017.9 0.0
22/07:30am 22.8 24.6 18.3 76 2.8 ESE 6 9 3 5 1018.8 1017.6 0.0
22/07:00am 22.3 24.4 18.1 77 2.6 ESE 4 9 2 5 1018.2 1017.1 0.0
22/06:30am 21.4 22.8 17.4 78 2.5 SE 6 7 3 4 1017.6 1016.5 0.0
22/06:00am 22.1 23.5 17.7 76 2.7 NE 7 11 4 6 1016.9 1015.8 0.0
22/05:30am 22.7 24.3 17.8 74 3.1 ENE 6 7 3 4 1016.6 1015.5 0.0
22/05:00am 22.8 24.3 17.7 73 3.2 E 6 9 3 5 1016.3 1015.2 0.0
22/04:30am 23.2 24.6 17.9 72 3.3 ENE 7 9 4 5 1015.9 1014.8 0.0
22/04:00am 23.4 24.2 17.4 69 3.7 NE 9 13 5 7 1015.7 1014.5 0.0
22/03:30am 23.7 24.0 17.0 66 4.2 ENE 11 15 6 8 1015.4 1014.2 0.0
22/03:00am 23.6 24.2 15.9 62 4.7 ENE 7 13 4 7 1015.5 1014.3 0.0
22/02:30am 24.2 24.5 15.1 56 5.5 ENE 7 13 4 7 1015.4 1014.2 0.0
22/02:00am 24.8 24.6 14.6 53 6.1 NE 9 13 5 7 1015.0 1013.8 0.0
22/01:30am 25.0 24.5 13.9 50 6.6 NE 9 11 5 6 1015.0 1013.8 0.0
22/01:00am 25.3 25.3 14.1 50 6.7 NE 7 9 4 5 1015.0 1013.8 0.0
22/12:30am 25.7 25.9 14.2 49 6.9 NE 6 7 3 4 1015.1 1013.9 0.0
22/12:00am 27.0 26.0 14.7 47 7.5 NE 13 19 7 10 1015.2 1014.0 0.0
 
Date/Time
CST
Temp
°C
App
Temp
°C
Dew
Point
°C
Rel
Hum
%
Delta-T
°C
Wind Press
QNH
hPa
Press
MSL
hPa
Rain since
9am
mm
Dir  Spd
km/h
Gust
km/h
Spd
kts
Gust
kts
21/11:30pm 27.4 25.7 13.7 43 8.2 NE 15 20 8 11 1015.3 1014.1 0.0
21/11:00pm 27.4 26.0 12.2 39 8.9 NE 11 17 6 9 1015.2 1014.0 0.0
21/10:30pm 26.6 25.0 10.3 36 9.2 ENE 9 13 5 7 1015.2 1014.0 0.0
21/10:00pm 22.6 22.1 8.0 39 7.7 CALM 0 0 0 0 1015.0 1013.8 0.0
21/09:30pm 23.1 21.9 6.4 34 8.6 ENE 2 2 1 1 1014.9 1013.7 0.0
21/09:00pm 23.6 22.9 6.8 34 8.8 CALM 0 0 0 0 1014.6 1013.4 0.0
21/08:30pm 24.4 23.5 6.2 31 9.4 CALM 0 0 0 0 1014.4 1013.2 0.0
21/08:00pm 25.5 24.8 7.1 31 9.8 CALM 0 0 0 0 1014.2 1013.0 0.0
21/07:30pm 26.7 25.8 6.2 27 10.8 CALM 0 0 0 0 1013.9 1012.7 0.0
21/07:00pm 29.8 28.4 7.1 24 12.3 NE 4 4 2 2 1013.6 1012.4 0.0
21/06:30pm 32.4 30.4 7.3 21 13.9 NNE 7 11 4 6 1013.3 1012.2 0.0
21/06:00pm 33.5 30.5 7.5 20 14.5 NE 13 19 7 10 1013.0 1011.9 0.0
21/05:30pm 34.3 32.9 7.4 19 15.0 NE 4 9 2 5 1012.8 1011.7 0.0
21/05:00pm 34.4 32.1 7.5 19 15.1 NE 9 17 5 9 1012.7 1011.6 0.0
21/04:30pm 34.5 32.0 8.3 20 14.9 NE 11 19 6 10 1012.7 1011.6 0.0
21/04:00pm 34.1 33.1 8.7 21 14.5 ENE 4 9 2 5 1012.7 1011.6 0.0
21/03:30pm 33.6 30.3 9.6 23 13.8 NE 17 24 9 13 1012.7 1011.6 0.0
21/03:00pm 34.6 33.6 10.4 23 14.2 NNE 6 17 3 9 1012.9 1011.8 0.0
21/02:30pm 34.5 33.7 11.6 25 13.7 NE 7 20 4 11 1013.3 1012.2 0.0
21/02:00pm 32.8 31.4 10.8 26 12.9 ENE 9 22 5 12 1013.8 1012.6 0.0
21/01:30pm 32.5 31.1 12.2 29 12.1 N 11 20 6 11 1014.2 1013.0 0.0
21/01:00pm 33.0 31.7 12.6 29 12.3 NW 11 20 6 11 1014.6 1013.4 0.0
21/12:30pm 31.7 30.2 13.0 32 11.3 NNE 13 26 7 14 1015.0 1013.8 0.0
21/12:00pm 31.4 28.6 12.7 32 11.2 N 19 24 10 13 1015.7 1014.5 0.0
21/11:30am 30.6 29.2 13.4 35 10.4 NNW 13 20 7 11 1016.1 1015.0 0.0
21/11:00am 30.3 28.6 13.6 36 10.1 N 15 24 8 13 1016.4 1015.3 0.0
21/10:30am 29.3 27.5 15.4 42 8.6 NNW 19 26 10 14 1016.8 1015.7 0.0
21/10:00am 28.1 26.6 15.4 46 7.8 NW 17 28 9 15 1017.1 1016.0 0.0
21/09:30am 27.9 26.5 15.5 46 7.6 NW 17 28 9 15 1017.1 1016.0 0.0
21/09:00am 26.8 25.8 15.5 50 6.9 NW 15 24 8 13 1017.1 1016.0 0.0
21/08:30am 25.5 24.4 15.2 53 6.3 NNW 15 22 8 12 1016.8 1015.7 0.0
21/08:00am 24.2 23.5 15.4 58 5.3 N 13 22 7 12 1016.3 1015.2 0.0
21/07:30am 22.3 22.7 15.2 64 4.3 NNE 7 9 4 5 1016.0 1014.9 0.0
21/07:00am 21.1 21.1 15.2 69 3.5 NNE 9 11 5 6 1015.4 1014.2 0.0
21/06:30am 20.5 20.7 14.6 69 3.5 NNE 7 11 4 6 1015.0 1013.8 0.0
21/06:00am 20.5 19.7 13.9 66 3.8 NNE 11 15 6 8 1014.5 1013.3 0.0
21/05:30am 20.4 20.0 12.9 62 4.3 NNE 7 11 4 6 1014.3 1013.1 0.0
21/05:00am 21.0 19.9 11.9 56 5.1 N 9 15 5 8 1014.1 1012.9 0.0
21/04:30am 20.5 18.8 11.2 55 5.2 NNE 11 19 6 10 1013.9 1012.7 0.0
21/04:00am 19.0 17.6 8.9 52 5.3 N 6 7 3 4 1013.9 1012.7 0.0
21/03:30am 18.6 16.6 6.4 45 6.1 N 6 6 3 3 1013.6 1012.4 0.0
21/03:00am 19.2 17.8 7.3 46 6.1 NNE 4 6 2 3 1013.4 1012.3 0.0
21/02:30am 21.2 19.6 6.3 38 7.6 NNE 4 6 2 3 1013.4 1012.3 0.0
21/02:00am 23.4 21.4 7.1 35 8.5 NNE 7 9 4 5 1013.4 1012.3 0.0
21/01:30am 24.4 22.1 7.5 34 9.0 NNE 9 15 5 8 1013.4 1012.3 0.0
21/01:00am 25.1 22.1 7.7 33 9.3 NE 13 20 7 11 1013.3 1012.2 0.0
21/12:30am 25.4 22.1 8.0 33 9.4 NE 15 22 8 12 1013.3 1012.2 0.0
21/12:00am 26.1 23.1 7.7 31 9.9 NNE 13 19 7 10 1013.6 1012.4 0.0
 
Date/Time
CST
Temp
°C
App
Temp
°C
Dew
Point
°C
Rel
Hum
%
Delta-T
°C
Wind Press
QNH
hPa
Press
MSL
hPa
Rain since
9am
mm
Dir  Spd
km/h
Gust
km/h
Spd
kts
Gust
kts
20/11:30pm 26.6 22.6 6.6 28 10.6 NE 17 24 9 13 1013.4 1012.3 0.0
20/11:00pm 25.4 22.2 2.8 23 11.1 NE 9 22 5 12 1013.4 1012.3 0.0
20/10:30pm 24.2 21.6 4.0 27 10.1 NNE 7 11 4 6 1013.3 1012.2 0.0
20/10:00pm 21.4 18.8 1.1 26 9.4 NE 4 6 2 3 1013.3 1012.2 0.0
20/09:30pm 22.4 19.4 2.0 26 9.7 NE 7 7 4 4 1013.3 1012.2 0.0
20/09:00pm 21.9 19.3 1.0 25 9.7 NE 4 6 2 3 1013.1 1012.0 0.0
20/08:30pm 22.9 20.0 1.3 24 10.1 ENE 6 7 3 4 1012.9 1011.8 0.0
20/08:00pm 24.1 22.4 1.7 23 10.7 CALM 0 0 0 0 1012.6 1011.5 0.0
20/07:30pm 25.6 23.0 1.0 20 11.7 NNE 4 4 2 2 1012.3 1011.2 0.0
20/07:00pm 28.5 26.1 -0.6 15 13.7 NNE 2 4 1 2 1012.0 1010.9 0.0
20/06:30pm 32.8 30.3 1.8 14 15.7 N 4 6 2 3 1011.8 1010.7 0.0
20/06:00pm 34.4 31.6 2.0 13 16.6 NE 6 11 3 6 1011.6 1010.5 0.0
20/05:30pm 35.0 32.3 2.5 13 16.9 NNW 6 11 3 6 1011.2 1010.0 0.0
20/05:00pm 35.4 33.1 2.8 13 17.0 ENE 4 9 2 5 1011.0 1009.8 0.0
20/04:30pm 35.4 31.8 2.8 13 17.1 N 11 22 6 12 1010.9 1009.7 0.0
20/04:00pm 35.2 32.5 2.6 13 17.0 N 6 11 3 6 1010.9 1009.7 0.0
20/03:30pm 36.6 33.9 3.7 13 17.6 N 7 24 4 13 1011.0 1009.8 0.0
20/03:00pm 35.6 33.3 3.0 13 17.1 ESE 4 11 2 6 1011.4 1010.2 0.0
20/02:30pm 35.3 32.4 2.7 13 17.0 N 7 17 4 9 1011.8 1010.7 0.0

Other formats

Comma delimited format used in spreadsheet applications
http://www.bom.gov.au/fwo/IDD60801/IDD60801.94234.axf

JavaScript Object Notation format (JSON) in row-major order
http://www.bom.gov.au/fwo/IDD60801/IDD60801.94234.json

Data quality

Most of these data are generated automatically and are frequently updated. Quality checks on data are not normally performed. It is possible for incorrect values to appear. Refer to information at About Latest Weather Observations and please check the disclaimer before using these data.